sensor_id;sensor_type;location;lat;lon;timestamp;temperature;humidity
55121;DHT22;41019;48.512;9.036;2022-10-16T00:00:05;15.70;97.10
55121;DHT22;41019;48.512;9.036;2022-10-16T00:02:31;15.70;97.10
55121;DHT22;41019;48.512;9.036;2022-10-16T00:04:58;15.70;97.10
55121;DHT22;41019;48.512;9.036;2022-10-16T00:07:24;15.70;96.90
55121;DHT22;41019;48.512;9.036;2022-10-16T00:09:50;15.60;96.70
55121;DHT22;41019;48.512;9.036;2022-10-16T00:12:16;15.60;97.20
55121;DHT22;41019;48.512;9.036;2022-10-16T00:14:41;15.60;97.10
55121;DHT22;41019;48.512;9.036;2022-10-16T00:17:09;15.50;96.90
55121;DHT22;41019;48.512;9.036;2022-10-16T00:19:35;15.50;97.10
55121;DHT22;41019;48.512;9.036;2022-10-16T00:22:01;15.40;96.90
55121;DHT22;41019;48.512;9.036;2022-10-16T00:24:27;15.40;96.80
55121;DHT22;41019;48.512;9.036;2022-10-16T00:26:53;15.40;97.10
55121;DHT22;41019;48.512;9.036;2022-10-16T00:29:19;15.40;97.10
55121;DHT22;41019;48.512;9.036;2022-10-16T00:31:45;15.30;96.90
55121;DHT22;41019;48.512;9.036;2022-10-16T00:34:11;15.30;97.10
55121;DHT22;41019;48.512;9.036;2022-10-16T00:36:37;15.30;97.50
55121;DHT22;41019;48.512;9.036;2022-10-16T00:39:03;15.30;97.50
55121;DHT22;41019;48.512;9.036;2022-10-16T00:41:29;15.30;97.20
55121;DHT22;41019;48.512;9.036;2022-10-16T00:43:58;15.20;97.00
55121;DHT22;41019;48.512;9.036;2022-10-16T00:46:37;15.20;96.90
55121;DHT22;41019;48.512;9.036;2022-10-16T00:49:13;15.20;97.00
55121;DHT22;41019;48.512;9.036;2022-10-16T00:51:53;15.10;96.90
55121;DHT22;41019;48.512;9.036;2022-10-16T00:54:29;15.10;96.90
55121;DHT22;41019;48.512;9.036;2022-10-16T00:57:00;15.10;97.20
55121;DHT22;41019;48.512;9.036;2022-10-16T00:59:33;15.10;97.40
55121;DHT22;41019;48.512;9.036;2022-10-16T01:02:01;15.10;97.50
55121;DHT22;41019;48.512;9.036;2022-10-16T01:04:37;15.10;97.60
55121;DHT22;41019;48.512;9.036;2022-10-16T01:10:35;15.00;97.60
55121;DHT22;41019;48.512;9.036;2022-10-16T01:13:11;15.00;97.70
55121;DHT22;41019;48.512;9.036;2022-10-16T01:18:16;15.00;97.90
55121;DHT22;41019;48.512;9.036;2022-10-16T01:21:05;15.00;98.20
55121;DHT22;41019;48.512;9.036;2022-10-16T01:29:25;15.00;98.20
55121;DHT22;41019;48.512;9.036;2022-10-16T01:32:06;15.00;98.40
55121;DHT22;41019;48.512;9.036;2022-10-16T01:35:34;15.00;98.20
55121;DHT22;41019;48.512;9.036;2022-10-16T01:40:46;15.00;98.60
55121;DHT22;41019;48.512;9.036;2022-10-16T01:43:22;15.00;98.70
55121;DHT22;41019;48.512;9.036;2022-10-16T01:45:50;15.00;98.60
55121;DHT22;41019;48.512;9.036;2022-10-16T01:48:19;15.00;98.90
55121;DHT22;41019;48.512;9.036;2022-10-16T01:51:06;15.00;99.10
55121;DHT22;41019;48.512;9.036;2022-10-16T01:53:33;15.10;98.90
55121;DHT22;41019;48.512;9.036;2022-10-16T01:56:04;15.00;98.90
55121;DHT22;41019;48.512;9.036;2022-10-16T01:58:41;15.00;98.80
55121;DHT22;41019;48.512;9.036;2022-10-16T02:01:12;15.00;98.70
55121;DHT22;41019;48.512;9.036;2022-10-16T02:03:43;15.10;99.00
55121;DHT22;41019;48.512;9.036;2022-10-16T02:06:10;15.10;99.00
55121;DHT22;41019;48.512;9.036;2022-10-16T02:08:36;15.00;98.90
55121;DHT22;41019;48.512;9.036;2022-10-16T02:11:04;15.10;98.80
55121;DHT22;41019;48.512;9.036;2022-10-16T02:16:02;15.10;98.90
55121;DHT22;41019;48.512;9.036;2022-10-16T02:18:29;15.10;98.80
55121;DHT22;41019;48.512;9.036;2022-10-16T02:21:13;15.10;98.60
55121;DHT22;41019;48.512;9.036;2022-10-16T02:26:45;15.10;99.00
55121;DHT22;41019;48.512;9.036;2022-10-16T02:29:20;15.10;98.90
55121;DHT22;41019;48.512;9.036;2022-10-16T02:31:52;15.10;99.10
55121;DHT22;41019;48.512;9.036;2022-10-16T02:34:23;15.10;99.00
55121;DHT22;41019;48.512;9.036;2022-10-16T02:36:53;15.10;99.00
55121;DHT22;41019;48.512;9.036;2022-10-16T02:39:21;15.10;99.10
55121;DHT22;41019;48.512;9.036;2022-10-16T02:41:47;15.10;98.90
55121;DHT22;41019;48.512;9.036;2022-10-16T02:44:14;15.10;98.80
55121;DHT22;41019;48.512;9.036;2022-10-16T02:46:40;15.00;98.70
55121;DHT22;41019;48.512;9.036;2022-10-16T02:49:06;15.00;98.80
55121;DHT22;41019;48.512;9.036;2022-10-16T02:51:32;15.00;98.80
55121;DHT22;41019;48.512;9.036;2022-10-16T02:53:58;15.00;98.70
55121;DHT22;41019;48.512;9.036;2022-10-16T02:56:24;15.00;98.60
55121;DHT22;41019;48.512;9.036;2022-10-16T02:58:50;15.00;98.60
55121;DHT22;41019;48.512;9.036;2022-10-16T03:01:16;14.90;98.40
55121;DHT22;41019;48.512;9.036;2022-10-16T03:03:42;14.90;98.50
55121;DHT22;41019;48.512;9.036;2022-10-16T03:06:08;14.90;98.50
55121;DHT22;41019;48.512;9.036;2022-10-16T03:08:34;14.90;98.90
55121;DHT22;41019;48.512;9.036;2022-10-16T03:11:00;14.90;99.10
55121;DHT22;41019;48.512;9.036;2022-10-16T03:13:28;14.80;99.30
55121;DHT22;41019;48.512;9.036;2022-10-16T03:15:53;14.90;99.20
55121;DHT22;41019;48.512;9.036;2022-10-16T03:18:19;14.90;99.10
55121;DHT22;41019;48.512;9.036;2022-10-16T03:20:46;14.90;99.10
55121;DHT22;41019;48.512;9.036;2022-10-16T03:23:12;14.90;99.00
55121;DHT22;41019;48.512;9.036;2022-10-16T03:25:38;14.90;98.90
55121;DHT22;41019;48.512;9.036;2022-10-16T03:28:05;14.90;98.90
55121;DHT22;41019;48.512;9.036;2022-10-16T03:30:31;14.90;98.70
55121;DHT22;41019;48.512;9.036;2022-10-16T03:32:57;14.80;98.90
55121;DHT22;41019;48.512;9.036;2022-10-16T03:35:24;14.80;98.80
55121;DHT22;41019;48.512;9.036;2022-10-16T03:37:50;14.80;98.60
55121;DHT22;41019;48.512;9.036;2022-10-16T03:40:16;14.80;98.90
55121;DHT22;41019;48.512;9.036;2022-10-16T03:42:44;14.80;98.70
55121;DHT22;41019;48.512;9.036;2022-10-16T03:45:11;14.80;98.70
55121;DHT22;41019;48.512;9.036;2022-10-16T03:47:37;14.80;98.90
55121;DHT22;41019;48.512;9.036;2022-10-16T03:50:05;14.80;99.10
55121;DHT22;41019;48.512;9.036;2022-10-16T03:52:31;14.80;99.20
55121;DHT22;41019;48.512;9.036;2022-10-16T03:54:57;14.80;99.20
55121;DHT22;41019;48.512;9.036;2022-10-16T03:57:24;14.80;99.20
55121;DHT22;41019;48.512;9.036;2022-10-16T03:59:50;14.80;99.20
55121;DHT22;41019;48.512;9.036;2022-10-16T04:02:16;14.80;99.20
55121;DHT22;41019;48.512;9.036;2022-10-16T04:04:42;14.70;99.10
55121;DHT22;41019;48.512;9.036;2022-10-16T04:07:08;14.80;99.10
55121;DHT22;41019;48.512;9.036;2022-10-16T04:09:34;14.80;99.10
55121;DHT22;41019;48.512;9.036;2022-10-16T04:12:00;14.70;99.00
55121;DHT22;41019;48.512;9.036;2022-10-16T04:14:26;14.70;99.10
55121;DHT22;41019;48.512;9.036;2022-10-16T04:16:52;14.70;99.30
55121;DHT22;41019;48.512;9.036;2022-10-16T04:19:18;14.70;99.10
55121;DHT22;41019;48.512;9.036;2022-10-16T04:21:44;14.70;99.00
55121;DHT22;41019;48.512;9.036;2022-10-16T04:24:10;14.70;99.00
55121;DHT22;41019;48.512;9.036;2022-10-16T04:26:37;14.70;99.00
55121;DHT22;41019;48.512;9.036;2022-10-16T04:29:04;14.70;98.80
55121;DHT22;41019;48.512;9.036;2022-10-16T04:31:29;14.70;98.80
55121;DHT22;41019;48.512;9.036;2022-10-16T04:33:56;14.70;99.00
55121;DHT22;41019;48.512;9.036;2022-10-16T04:36:22;14.60;99.00
55121;DHT22;41019;48.512;9.036;2022-10-16T04:38:48;14.60;99.10
55121;DHT22;41019;48.512;9.036;2022-10-16T04:41:14;14.60;99.30
55121;DHT22;41019;48.512;9.036;2022-10-16T04:43:40;14.60;99.20
55121;DHT22;41019;48.512;9.036;2022-10-16T04:46:06;14.60;99.20
55121;DHT22;41019;48.512;9.036;2022-10-16T04:48:32;14.60;99.10
55121;DHT22;41019;48.512;9.036;2022-10-16T04:50:59;14.60;99.20
55121;DHT22;41019;48.512;9.036;2022-10-16T04:53:25;14.60;99.20
55121;DHT22;41019;48.512;9.036;2022-10-16T04:55:51;14.60;99.20
55121;DHT22;41019;48.512;9.036;2022-10-16T04:58:17;14.60;99.20
55121;DHT22;41019;48.512;9.036;2022-10-16T05:00:44;14.60;99.10
55121;DHT22;41019;48.512;9.036;2022-10-16T05:03:10;14.60;99.20
55121;DHT22;41019;48.512;9.036;2022-10-16T05:05:36;14.60;99.20
55121;DHT22;41019;48.512;9.036;2022-10-16T05:08:03;14.60;99.20
55121;DHT22;41019;48.512;9.036;2022-10-16T05:10:29;14.60;99.20
55121;DHT22;41019;48.512;9.036;2022-10-16T05:12:55;14.60;99.40
55121;DHT22;41019;48.512;9.036;2022-10-16T05:15:21;14.50;99.50
55121;DHT22;41019;48.512;9.036;2022-10-16T05:17:53;14.50;99.40
55121;DHT22;41019;48.512;9.036;2022-10-16T05:20:19;14.50;99.40
55121;DHT22;41019;48.512;9.036;2022-10-16T05:22:45;14.50;99.30
55121;DHT22;41019;48.512;9.036;2022-10-16T05:25:11;14.40;99.40
55121;DHT22;41019;48.512;9.036;2022-10-16T05:27:37;14.40;99.30
55121;DHT22;41019;48.512;9.036;2022-10-16T05:30:04;14.30;99.10
55121;DHT22;41019;48.512;9.036;2022-10-16T05:32:30;14.30;99.10
55121;DHT22;41019;48.512;9.036;2022-10-16T05:34:56;14.30;99.10
55121;DHT22;41019;48.512;9.036;2022-10-16T05:37:22;14.30;98.90
55121;DHT22;41019;48.512;9.036;2022-10-16T05:39:48;14.20;98.90
55121;DHT22;41019;48.512;9.036;2022-10-16T05:42:14;14.30;99.10
55121;DHT22;41019;48.512;9.036;2022-10-16T05:44:40;14.20;99.10
55121;DHT22;41019;48.512;9.036;2022-10-16T05:47:06;14.20;99.40
55121;DHT22;41019;48.512;9.036;2022-10-16T05:49:32;14.20;99.50
55121;DHT22;41019;48.512;9.036;2022-10-16T05:51:58;14.20;99.40
55121;DHT22;41019;48.512;9.036;2022-10-16T05:54:24;14.20;99.30
55121;DHT22;41019;48.512;9.036;2022-10-16T05:56:50;14.20;99.20
55121;DHT22;41019;48.512;9.036;2022-10-16T05:59:16;14.20;99.40
55121;DHT22;41019;48.512;9.036;2022-10-16T06:01:42;14.20;99.30
55121;DHT22;41019;48.512;9.036;2022-10-16T06:04:08;14.20;99.20
55121;DHT22;41019;48.512;9.036;2022-10-16T06:06:35;14.30;99.10
55121;DHT22;41019;48.512;9.036;2022-10-16T06:09:02;14.30;99.10
55121;DHT22;41019;48.512;9.036;2022-10-16T06:11:31;14.30;99.00
55121;DHT22;41019;48.512;9.036;2022-10-16T06:13:59;14.30;99.20
55121;DHT22;41019;48.512;9.036;2022-10-16T06:16:28;14.30;99.40
55121;DHT22;41019;48.512;9.036;2022-10-16T06:18:55;14.30;99.20
55121;DHT22;41019;48.512;9.036;2022-10-16T06:21:27;14.30;99.20
55121;DHT22;41019;48.512;9.036;2022-10-16T06:23:55;14.30;99.10
55121;DHT22;41019;48.512;9.036;2022-10-16T06:26:24;14.30;99.10
55121;DHT22;41019;48.512;9.036;2022-10-16T06:28:51;14.40;99.30
55121;DHT22;41019;48.512;9.036;2022-10-16T06:31:17;14.40;99.40
55121;DHT22;41019;48.512;9.036;2022-10-16T06:33:43;14.50;99.80
55121;DHT22;41019;48.512;9.036;2022-10-16T06:36:12;14.50;99.90
55121;DHT22;41019;48.512;9.036;2022-10-16T06:38:39;14.60;99.90
55121;DHT22;41019;48.512;9.036;2022-10-16T06:41:06;14.70;99.90
55121;DHT22;41019;48.512;9.036;2022-10-16T06:43:33;14.70;99.90
55121;DHT22;41019;48.512;9.036;2022-10-16T06:46:02;14.80;99.90
55121;DHT22;41019;48.512;9.036;2022-10-16T06:48:29;14.90;99.80
55121;DHT22;41019;48.512;9.036;2022-10-16T06:53:23;15.00;99.70
55121;DHT22;41019;48.512;9.036;2022-10-16T06:55:49;15.00;99.70
55121;DHT22;41019;48.512;9.036;2022-10-16T06:58:16;15.00;99.50
55121;DHT22;41019;48.512;9.036;2022-10-16T07:00:41;15.00;99.40
55121;DHT22;41019;48.512;9.036;2022-10-16T07:03:07;15.10;99.40
55121;DHT22;41019;48.512;9.036;2022-10-16T07:05:46;15.10;99.30
55121;DHT22;41019;48.512;9.036;2022-10-16T07:08:12;15.10;99.40
55121;DHT22;41019;48.512;9.036;2022-10-16T07:10:38;15.20;99.40
55121;DHT22;41019;48.512;9.036;2022-10-16T07:13:04;15.20;99.30
55121;DHT22;41019;48.512;9.036;2022-10-16T07:15:30;15.20;99.10
55121;DHT22;41019;48.512;9.036;2022-10-16T07:17:55;15.30;99.20
55121;DHT22;41019;48.512;9.036;2022-10-16T07:20:21;15.30;99.20
55121;DHT22;41019;48.512;9.036;2022-10-16T07:22:47;15.30;99.30
55121;DHT22;41019;48.512;9.036;2022-10-16T07:25:13;15.30;99.10
55121;DHT22;41019;48.512;9.036;2022-10-16T07:27:38;15.40;99.20
55121;DHT22;41019;48.512;9.036;2022-10-16T07:30:05;15.40;99.20
55121;DHT22;41019;48.512;9.036;2022-10-16T07:32:31;15.50;99.00
55121;DHT22;41019;48.512;9.036;2022-10-16T07:34:58;15.50;98.70
55121;DHT22;41019;48.512;9.036;2022-10-16T07:37:24;15.60;98.70
55121;DHT22;41019;48.512;9.036;2022-10-16T07:39:49;15.60;98.80
55121;DHT22;41019;48.512;9.036;2022-10-16T07:42:15;15.60;98.90
55121;DHT22;41019;48.512;9.036;2022-10-16T07:44:41;15.80;98.90
55121;DHT22;41019;48.512;9.036;2022-10-16T07:47:07;15.80;98.80
55121;DHT22;41019;48.512;9.036;2022-10-16T07:49:33;15.90;98.70
55121;DHT22;41019;48.512;9.036;2022-10-16T07:51:59;16.00;98.70
55121;DHT22;41019;48.512;9.036;2022-10-16T07:54:25;16.00;98.80
55121;DHT22;41019;48.512;9.036;2022-10-16T07:56:51;16.10;98.50
55121;DHT22;41019;48.512;9.036;2022-10-16T07:59:17;16.20;98.40
55121;DHT22;41019;48.512;9.036;2022-10-16T08:01:43;16.30;98.30
55121;DHT22;41019;48.512;9.036;2022-10-16T08:04:10;16.30;98.30
55121;DHT22;41019;48.512;9.036;2022-10-16T08:06:38;16.40;98.10
55121;DHT22;41019;48.512;9.036;2022-10-16T08:09:05;16.40;98.00
55121;DHT22;41019;48.512;9.036;2022-10-16T08:11:33;16.50;97.90
55121;DHT22;41019;48.512;9.036;2022-10-16T08:13:59;16.50;97.90
55121;DHT22;41019;48.512;9.036;2022-10-16T08:16:25;16.60;96.90
55121;DHT22;41019;48.512;9.036;2022-10-16T08:18:51;16.60;96.90
55121;DHT22;41019;48.512;9.036;2022-10-16T08:21:31;16.70;96.90
55121;DHT22;41019;48.512;9.036;2022-10-16T08:23:57;16.90;96.80
55121;DHT22;41019;48.512;9.036;2022-10-16T08:26:26;17.00;97.00
55121;DHT22;41019;48.512;9.036;2022-10-16T08:28:52;17.10;96.60
55121;DHT22;41019;48.512;9.036;2022-10-16T08:31:42;17.20;96.40
55121;DHT22;41019;48.512;9.036;2022-10-16T08:34:07;17.40;95.80
55121;DHT22;41019;48.512;9.036;2022-10-16T08:36:33;17.40;95.00
55121;DHT22;41019;48.512;9.036;2022-10-16T08:38:59;17.40;94.90
55121;DHT22;41019;48.512;9.036;2022-10-16T08:41:36;17.50;95.00
55121;DHT22;41019;48.512;9.036;2022-10-16T08:44:30;17.50;95.10
55121;DHT22;41019;48.512;9.036;2022-10-16T08:47:17;17.60;94.70
55121;DHT22;41019;48.512;9.036;2022-10-16T08:50:02;17.70;94.70
55121;DHT22;41019;48.512;9.036;2022-10-16T08:52:35;17.70;94.50
55121;DHT22;41019;48.512;9.036;2022-10-16T08:55:04;17.80;94.70
55121;DHT22;41019;48.512;9.036;2022-10-16T08:57:30;17.80;94.90
55121;DHT22;41019;48.512;9.036;2022-10-16T09:00:05;17.80;94.20
55121;DHT22;41019;48.512;9.036;2022-10-16T09:02:39;17.90;94.20
55121;DHT22;41019;48.512;9.036;2022-10-16T09:13:27;18.10;93.70
55121;DHT22;41019;48.512;9.036;2022-10-16T09:21:30;18.50;91.90
55121;DHT22;41019;48.512;9.036;2022-10-16T09:24:06;18.60;91.40
55121;DHT22;41019;48.512;9.036;2022-10-16T09:26:35;18.70;91.30
55121;DHT22;41019;48.512;9.036;2022-10-16T09:29:01;18.90;91.00
55121;DHT22;41019;48.512;9.036;2022-10-16T09:31:28;18.90;90.50
55121;DHT22;41019;48.512;9.036;2022-10-16T09:33:59;19.00;90.10
55121;DHT22;41019;48.512;9.036;2022-10-16T09:36:27;19.20;90.20
55121;DHT22;41019;48.512;9.036;2022-10-16T09:39:04;19.50;89.00
55121;DHT22;41019;48.512;9.036;2022-10-16T09:41:30;19.80;87.30
55121;DHT22;41019;48.512;9.036;2022-10-16T09:44:00;19.90;86.90
55121;DHT22;41019;48.512;9.036;2022-10-16T09:46:35;20.00;85.90
55121;DHT22;41019;48.512;9.036;2022-10-16T09:49:21;19.90;86.10
55121;DHT22;41019;48.512;9.036;2022-10-16T09:51:48;19.80;86.20
55121;DHT22;41019;48.512;9.036;2022-10-16T09:54:19;19.80;85.70
55121;DHT22;41019;48.512;9.036;2022-10-16T09:56:46;19.80;86.70
55121;DHT22;41019;48.512;9.036;2022-10-16T09:59:17;19.70;86.90
55121;DHT22;41019;48.512;9.036;2022-10-16T10:01:55;19.70;85.80
55121;DHT22;41019;48.512;9.036;2022-10-16T10:07:44;19.70;85.80
55121;DHT22;41019;48.512;9.036;2022-10-16T10:10:27;19.70;86.10
55121;DHT22;41019;48.512;9.036;2022-10-16T10:12:55;19.70;87.40
55121;DHT22;41019;48.512;9.036;2022-10-16T10:15:22;19.80;87.20
55121;DHT22;41019;48.512;9.036;2022-10-16T10:17:58;20.00;84.90
55121;DHT22;41019;48.512;9.036;2022-10-16T10:20:57;20.20;82.50
55121;DHT22;41019;48.512;9.036;2022-10-16T10:23:26;20.50;83.00
55121;DHT22;41019;48.512;9.036;2022-10-16T10:26:27;20.70;83.80
55121;DHT22;41019;48.512;9.036;2022-10-16T10:39:58;22.50;76.20
55121;DHT22;41019;48.512;9.036;2022-10-16T10:48:05;23.20;74.20
55121;DHT22;41019;48.512;9.036;2022-10-16T11:02:18;24.30;64.00
55121;DHT22;41019;48.512;9.036;2022-10-16T11:08:29;24.80;61.30
55121;DHT22;41019;48.512;9.036;2022-10-16T11:11:04;25.00;60.00
55121;DHT22;41019;48.512;9.036;2022-10-16T11:13:55;25.10;61.40
55121;DHT22;41019;48.512;9.036;2022-10-16T11:16:58;25.20;59.50
55121;DHT22;41019;48.512;9.036;2022-10-16T11:19:50;25.30;59.80
55121;DHT22;41019;48.512;9.036;2022-10-16T11:22:29;25.30;57.80
55121;DHT22;41019;48.512;9.036;2022-10-16T11:30:13;25.40;53.90
55121;DHT22;41019;48.512;9.036;2022-10-16T11:35:47;25.50;54.70
55121;DHT22;41019;48.512;9.036;2022-10-16T11:41:26;25.60;54.90
55121;DHT22;41019;48.512;9.036;2022-10-16T11:46:47;25.90;52.90
55121;DHT22;41019;48.512;9.036;2022-10-16T11:49:21;26.00;53.10
55121;DHT22;41019;48.512;9.036;2022-10-16T11:54:55;26.00;51.70
55121;DHT22;41019;48.512;9.036;2022-10-16T11:57:45;26.10;52.50
55121;DHT22;41019;48.512;9.036;2022-10-16T12:00:25;26.30;51.70
55121;DHT22;41019;48.512;9.036;2022-10-16T12:06:10;26.10;49.80
55121;DHT22;41019;48.512;9.036;2022-10-16T12:08:38;26.00;49.50
55121;DHT22;41019;48.512;9.036;2022-10-16T12:16:53;25.50;52.20
55121;DHT22;41019;48.512;9.036;2022-10-16T12:19:20;25.50;51.80
55121;DHT22;41019;48.512;9.036;2022-10-16T12:21:48;25.60;51.40
55121;DHT22;41019;48.512;9.036;2022-10-16T12:24:39;25.70;50.40
55121;DHT22;41019;48.512;9.036;2022-10-16T12:27:29;25.80;51.00
55121;DHT22;41019;48.512;9.036;2022-10-16T12:30:01;25.80;49.50
55121;DHT22;41019;48.512;9.036;2022-10-16T12:34:54;25.70;51.20
55121;DHT22;41019;48.512;9.036;2022-10-16T12:37:27;25.80;51.70
55121;DHT22;41019;48.512;9.036;2022-10-16T12:39:56;25.90;51.00
55121;DHT22;41019;48.512;9.036;2022-10-16T12:44:56;25.90;51.50
55121;DHT22;41019;48.512;9.036;2022-10-16T12:47:49;25.90;51.90
55121;DHT22;41019;48.512;9.036;2022-10-16T12:52:52;26.00;50.60
55121;DHT22;41019;48.512;9.036;2022-10-16T12:55:21;26.00;50.50
55121;DHT22;41019;48.512;9.036;2022-10-16T12:58:13;26.00;50.40
55121;DHT22;41019;48.512;9.036;2022-10-16T13:06:21;25.90;51.10
55121;DHT22;41019;48.512;9.036;2022-10-16T13:17:43;25.40;56.80
55121;DHT22;41019;48.512;9.036;2022-10-16T13:23:43;25.00;59.60
55121;DHT22;41019;48.512;9.036;2022-10-16T13:26:18;24.80;61.70
55121;DHT22;41019;48.512;9.036;2022-10-16T13:28:46;24.60;63.10
55121;DHT22;41019;48.512;9.036;2022-10-16T13:31:20;24.50;64.20
55121;DHT22;41019;48.512;9.036;2022-10-16T13:33:54;24.40;64.20
55121;DHT22;41019;48.512;9.036;2022-10-16T13:36:26;24.30;63.70
55121;DHT22;41019;48.512;9.036;2022-10-16T13:39:14;24.20;64.60
55121;DHT22;41019;48.512;9.036;2022-10-16T13:41:43;24.10;62.70
55121;DHT22;41019;48.512;9.036;2022-10-16T13:44:18;24.10;63.50
55121;DHT22;41019;48.512;9.036;2022-10-16T13:46:44;24.10;64.20
55121;DHT22;41019;48.512;9.036;2022-10-16T13:49:16;24.00;65.80
55121;DHT22;41019;48.512;9.036;2022-10-16T13:51:57;24.00;66.50
55121;DHT22;41019;48.512;9.036;2022-10-16T13:54:27;23.90;66.20
55121;DHT22;41019;48.512;9.036;2022-10-16T13:57:04;23.80;66.80
55121;DHT22;41019;48.512;9.036;2022-10-16T13:59:35;23.80;67.50
55121;DHT22;41019;48.512;9.036;2022-10-16T14:02:20;23.80;66.10
55121;DHT22;41019;48.512;9.036;2022-10-16T14:04:49;23.70;66.30
55121;DHT22;41019;48.512;9.036;2022-10-16T14:07:24;23.70;66.80
55121;DHT22;41019;48.512;9.036;2022-10-16T14:09:53;23.60;67.90
55121;DHT22;41019;48.512;9.036;2022-10-16T14:12:21;23.60;68.20
55121;DHT22;41019;48.512;9.036;2022-10-16T14:14:51;23.60;68.60
55121;DHT22;41019;48.512;9.036;2022-10-16T14:17:27;23.60;68.60
55121;DHT22;41019;48.512;9.036;2022-10-16T14:19:56;23.60;68.90
55121;DHT22;41019;48.512;9.036;2022-10-16T14:24:56;23.50;68.80
55121;DHT22;41019;48.512;9.036;2022-10-16T14:30:20;23.50;69.10
55121;DHT22;41019;48.512;9.036;2022-10-16T14:32:55;23.50;69.00
55121;DHT22;41019;48.512;9.036;2022-10-16T14:35:25;23.50;69.60
55121;DHT22;41019;48.512;9.036;2022-10-16T14:37:53;23.50;70.20
55121;DHT22;41019;48.512;9.036;2022-10-16T14:40:24;23.50;69.80
55121;DHT22;41019;48.512;9.036;2022-10-16T14:42:51;23.40;69.40
55121;DHT22;41019;48.512;9.036;2022-10-16T14:45:24;23.40;68.80
55121;DHT22;41019;48.512;9.036;2022-10-16T14:47:58;23.40;68.40
55121;DHT22;41019;48.512;9.036;2022-10-16T14:50:25;23.50;69.00
55121;DHT22;41019;48.512;9.036;2022-10-16T14:52:51;23.40;68.00
55121;DHT22;41019;48.512;9.036;2022-10-16T14:55:18;23.40;68.90
55121;DHT22;41019;48.512;9.036;2022-10-16T14:57:45;23.40;67.40
55121;DHT22;41019;48.512;9.036;2022-10-16T15:00:19;23.30;66.80
55121;DHT22;41019;48.512;9.036;2022-10-16T15:02:47;23.20;68.00
55121;DHT22;41019;48.512;9.036;2022-10-16T15:05:25;23.10;67.00
55121;DHT22;41019;48.512;9.036;2022-10-16T15:07:53;23.00;67.40
55121;DHT22;41019;48.512;9.036;2022-10-16T15:10:22;22.90;67.90
55121;DHT22;41019;48.512;9.036;2022-10-16T15:12:49;22.90;68.60
55121;DHT22;41019;48.512;9.036;2022-10-16T15:15:31;22.80;68.30
55121;DHT22;41019;48.512;9.036;2022-10-16T15:17:58;22.70;69.10
55121;DHT22;41019;48.512;9.036;2022-10-16T15:20:28;22.60;68.70
55121;DHT22;41019;48.512;9.036;2022-10-16T15:22:54;22.60;69.20
55121;DHT22;41019;48.512;9.036;2022-10-16T15:27:56;22.40;68.70
55121;DHT22;41019;48.512;9.036;2022-10-16T15:30:22;22.30;69.10
55121;DHT22;41019;48.512;9.036;2022-10-16T15:32:48;22.20;69.10
55121;DHT22;41019;48.512;9.036;2022-10-16T15:35:14;22.20;69.80
55121;DHT22;41019;48.512;9.036;2022-10-16T15:37:39;22.10;70.70
55121;DHT22;41019;48.512;9.036;2022-10-16T15:40:06;22.00;70.30
55121;DHT22;41019;48.512;9.036;2022-10-16T15:42:31;21.90;72.10
55121;DHT22;41019;48.512;9.036;2022-10-16T15:44:57;21.80;70.60
55121;DHT22;41019;48.512;9.036;2022-10-16T15:47:23;21.80;71.20
55121;DHT22;41019;48.512;9.036;2022-10-16T15:49:49;21.70;71.50
55121;DHT22;41019;48.512;9.036;2022-10-16T15:52:15;21.60;72.30
55121;DHT22;41019;48.512;9.036;2022-10-16T15:54:42;21.50;72.70
55121;DHT22;41019;48.512;9.036;2022-10-16T15:57:08;21.40;72.90
55121;DHT22;41019;48.512;9.036;2022-10-16T15:59:34;21.30;73.50
55121;DHT22;41019;48.512;9.036;2022-10-16T16:02:00;21.20;74.10
55121;DHT22;41019;48.512;9.036;2022-10-16T16:04:26;21.10;75.30
55121;DHT22;41019;48.512;9.036;2022-10-16T16:07:13;21.00;75.80
55121;DHT22;41019;48.512;9.036;2022-10-16T16:09:39;20.90;77.10
55121;DHT22;41019;48.512;9.036;2022-10-16T16:12:04;20.80;77.90
55121;DHT22;41019;48.512;9.036;2022-10-16T16:14:30;20.70;78.00
55121;DHT22;41019;48.512;9.036;2022-10-16T16:16:57;20.60;78.50
55121;DHT22;41019;48.512;9.036;2022-10-16T16:19:23;20.60;79.20
55121;DHT22;41019;48.512;9.036;2022-10-16T16:21:50;20.50;79.40
55121;DHT22;41019;48.512;9.036;2022-10-16T16:24:16;20.40;80.00
55121;DHT22;41019;48.512;9.036;2022-10-16T16:26:42;20.40;80.60
55121;DHT22;41019;48.512;9.036;2022-10-16T16:29:13;20.30;80.80
55121;DHT22;41019;48.512;9.036;2022-10-16T16:31:41;20.20;81.20
55121;DHT22;41019;48.512;9.036;2022-10-16T16:34:08;20.10;81.70
55121;DHT22;41019;48.512;9.036;2022-10-16T16:36:35;20.00;82.00
55121;DHT22;41019;48.512;9.036;2022-10-16T16:39:02;19.90;82.40
55121;DHT22;41019;48.512;9.036;2022-10-16T16:41:29;19.80;83.10
55121;DHT22;41019;48.512;9.036;2022-10-16T16:44:02;19.80;84.10
55121;DHT22;41019;48.512;9.036;2022-10-16T16:46:28;19.70;84.90
55121;DHT22;41019;48.512;9.036;2022-10-16T16:48:54;19.60;85.40
55121;DHT22;41019;48.512;9.036;2022-10-16T16:51:21;19.50;85.60
55121;DHT22;41019;48.512;9.036;2022-10-16T16:53:50;19.50;86.30
55121;DHT22;41019;48.512;9.036;2022-10-16T16:56:18;19.40;86.20
55121;DHT22;41019;48.512;9.036;2022-10-16T16:58:48;19.30;87.10
55121;DHT22;41019;48.512;9.036;2022-10-16T17:01:14;19.20;88.00
55121;DHT22;41019;48.512;9.036;2022-10-16T17:03:43;19.20;88.70
55121;DHT22;41019;48.512;9.036;2022-10-16T17:06:11;19.10;89.00
55121;DHT22;41019;48.512;9.036;2022-10-16T17:08:38;19.00;88.60
55121;DHT22;41019;48.512;9.036;2022-10-16T17:11:05;18.90;90.00
55121;DHT22;41019;48.512;9.036;2022-10-16T17:13:34;18.90;90.50
55121;DHT22;41019;48.512;9.036;2022-10-16T17:16:05;18.80;90.60
55121;DHT22;41019;48.512;9.036;2022-10-16T17:18:32;18.80;90.60
55121;DHT22;41019;48.512;9.036;2022-10-16T17:21:03;18.70;91.30
55121;DHT22;41019;48.512;9.036;2022-10-16T17:23:30;18.70;91.50
55121;DHT22;41019;48.512;9.036;2022-10-16T17:26:03;18.70;91.90
55121;DHT22;41019;48.512;9.036;2022-10-16T17:28:29;18.60;92.20
55121;DHT22;41019;48.512;9.036;2022-10-16T17:30:55;18.60;92.50
55121;DHT22;41019;48.512;9.036;2022-10-16T17:33:21;18.50;92.40
55121;DHT22;41019;48.512;9.036;2022-10-16T17:35:47;18.40;92.30
55121;DHT22;41019;48.512;9.036;2022-10-16T17:38:14;18.40;92.40
55121;DHT22;41019;48.512;9.036;2022-10-16T17:40:41;18.30;92.40
55121;DHT22;41019;48.512;9.036;2022-10-16T17:43:08;18.30;92.80
55121;DHT22;41019;48.512;9.036;2022-10-16T17:45:37;18.20;92.80
55121;DHT22;41019;48.512;9.036;2022-10-16T17:48:05;18.10;92.80
55121;DHT22;41019;48.512;9.036;2022-10-16T17:50:31;18.10;92.70
55121;DHT22;41019;48.512;9.036;2022-10-16T17:52:57;18.00;92.80
55121;DHT22;41019;48.512;9.036;2022-10-16T17:55:22;17.90;93.00